Wind From: 11-12-2017 04:25 Until: 16:00 warning for: Wind Level: Orange info button

Power and phone distribution networks may be disrupted for relatively long periods., Roofs and chimneys can be damaged. , Tree branches may break. , Vehicles can be deported. , Traffic may be disrupted, particularly on secondary roads in forest areas. Limit your trips. , Limit your speed in highway driving, especially if you drive a vehicle or hitch sensitive to wind. , Do not go for walks in forests or along the coast., In town, be vigilant against possible falling objects., Do not work on roofs and do not touch any electrical line fallen on the ground., Store or secure sensitive objects to wind or likely to be damaged., Always install power generators outside buildings. 


Meteo18 Weather Cam more information Meteo18 Weather Cam


Thunder radar more information blitzortung!


Rain radar more information rain snow radar


Visit our other weather sites:

Template documentation
and downloads

And another site



Weather Underground History page Text

Daily Summary for October 12, 2016 Units:  Metric    English   Both
« Previous Day
Next Day »
Daily Weekly Monthly Yearly Custom
  High: Low: Average:
Temperature: 13.7 °C 2.6 °C 8.2 °C
Dew Point: 4.5 °C 0.9 °C 2.6 °C
Humidity: 89 % 49 % 69 %
Wind Speed: 24.1 km/h 0.0 km/h 8.9 km/h
Wind Gust: 30.6 km/h - -
Wind:- - NE
Pressure: 1016.5 hPa 1010.0 hPa -
Precipitation: 0.0 mm    
Historical Graphs
 
 
Tabular Data for October 12, 2016
Time Temperature Dew Point Pressure Wind Wind Speed Wind Gust Humidity Rainfall Rate (Hourly)
00:02 6.1 °C 2.4 °C 1016.5 hPa Calm   6.4 km/h 77 % 0.0 mm
00:17 6.2 °C 2.6 °C 1016.5 hPa NNE 1.6 km/h 4.8 km/h 78 % 0.0 mm
00:22 6.3 °C 2.6 °C 1016.5 hPa NNE 3.2 km/h 4.8 km/h 77 % 0.0 mm
00:32 6.3 °C 2.6 °C 1016.5 hPa NE 1.6 km/h 4.8 km/h 77 % 0.0 mm
00:37 6.3 °C 2.6 °C 1016.1 hPa North 3.2 km/h 4.8 km/h 77 % 0.0 mm
00:42 6.2 °C 2.6 °C 1016.1 hPa NNE 1.6 km/h 4.8 km/h 78 % 0.0 mm
00:52 6.3 °C 2.6 °C 1016.1 hPa NNE 1.6 km/h 8.0 km/h 77 % 0.0 mm
00:57 6.1 °C 2.4 °C 1016.1 hPa NNE 6.4 km/h 8.0 km/h 77 % 0.0 mm
01:02 6.1 °C 2.6 °C 1016.1 hPa NE 6.4 km/h 8.0 km/h 78 % 0.0 mm
01:17 6.2 °C 2.6 °C 1015.8 hPa NNE 4.8 km/h 9.7 km/h 78 % 0.0 mm
01:22 6.1 °C 2.7 °C 1015.8 hPa NNE 3.2 km/h 9.7 km/h 79 % 0.0 mm
01:32 6.0 °C 2.5 °C 1015.8 hPa Calm   11.3 km/h 78 % 0.0 mm
01:37 5.8 °C 2.4 °C 1015.8 hPa NE 1.6 km/h 11.3 km/h 79 % 0.0 mm
01:42 5.8 °C 2.4 °C 1015.8 hPa NE 8.0 km/h 9.7 km/h 79 % 0.0 mm
01:47 5.8 °C 2.4 °C 1015.8 hPa NE 6.4 km/h 9.7 km/h 79 % 0.0 mm
01:52 5.9 °C 2.5 °C 1015.8 hPa NE 4.8 km/h 9.7 km/h 79 % 0.0 mm
01:57 5.8 °C 2.4 °C 1015.8 hPa NE 3.2 km/h 9.7 km/h 79 % 0.0 mm
02:02 5.8 °C 2.4 °C 1015.5 hPa North 4.8 km/h 9.7 km/h 79 % 0.0 mm
02:07 5.7 °C 2.5 °C 1015.5 hPa North 1.6 km/h 8.0 km/h 80 % 0.0 mm
02:12 5.6 °C 2.4 °C 1015.5 hPa NNE 3.2 km/h 8.0 km/h 80 % 0.0 mm
02:17 5.5 °C 2.3 °C 1015.5 hPa North 6.4 km/h 9.7 km/h 80 % 0.0 mm
02:22 5.3 °C 2.1 °C 1015.5 hPa NE 3.2 km/h 9.7 km/h 80 % 0.0 mm
02:32 5.5 °C 2.5 °C 1015.5 hPa NNE 4.8 km/h 11.3 km/h 81 % 0.0 mm
02:37 5.7 °C 2.5 °C 1015.5 hPa NNE 8.0 km/h 11.3 km/h 80 % 0.0 mm
02:42 5.8 °C 2.6 °C 1015.5 hPa ENE 12.9 km/h 12.9 km/h 80 % 0.0 mm
02:52 5.8 °C 2.6 °C 1015.5 hPa NE 6.4 km/h 14.5 km/h 80 % 0.0 mm
02:57 5.7 °C 2.5 °C 1015.5 hPa North 6.4 km/h 14.5 km/h 80 % 0.0 mm
03:02 5.7 °C 2.5 °C 1015.5 hPa NE 8.0 km/h 14.5 km/h 80 % 0.0 mm
03:07 5.7 °C 2.5 °C 1015.5 hPa NE 4.8 km/h 12.9 km/h 80 % 0.0 mm
03:12 5.6 °C 2.4 °C 1015.5 hPa NE 6.4 km/h 12.9 km/h 80 % 0.0 mm
03:17 5.2 °C 2.0 °C 1015.5 hPa NE 6.4 km/h 12.9 km/h 80 % 0.0 mm
03:22 5.1 °C 2.3 °C 1015.5 hPa NNE 9.7 km/h 12.9 km/h 82 % 0.0 mm
03:27 5.2 °C 2.2 °C 1015.5 hPa NNE 6.4 km/h 11.3 km/h 81 % 0.0 mm
03:32 5.2 °C 2.2 °C 1015.5 hPa Calm   11.3 km/h 81 % 0.0 mm
03:37 5.2 °C 2.4 °C 1015.5 hPa NNE 8.0 km/h 11.3 km/h 82 % 0.0 mm
03:42 5.3 °C 2.3 °C 1015.5 hPa NNE 6.4 km/h 12.9 km/h 81 % 0.0 mm
03:52 5.3 °C 2.3 °C 1015.5 hPa NNE 9.7 km/h 14.5 km/h 81 % 0.0 mm
03:57 5.3 °C 2.3 °C 1015.5 hPa NE 9.7 km/h 14.5 km/h 81 % 0.0 mm
04:02 5.4 °C 2.4 °C 1015.5 hPa NE 8.0 km/h 14.5 km/h 81 % 0.0 mm
04:07 5.4 °C 2.4 °C 1015.5 hPa NE 9.7 km/h 14.5 km/h 81 % 0.0 mm
04:17 5.3 °C 2.3 °C 1015.5 hPa NE 8.0 km/h 14.5 km/h 81 % 0.0 mm
04:22 5.3 °C 2.5 °C 1015.5 hPa NE 4.8 km/h 14.5 km/h 82 % 0.0 mm
04:27 5.1 °C 2.3 °C 1015.5 hPa NNE 6.4 km/h 12.9 km/h 82 % 0.0 mm
04:32 5.0 °C 2.2 °C 1015.5 hPa North 4.8 km/h 12.9 km/h 82 % 0.0 mm
04:37 4.9 °C 2.3 °C 1015.5 hPa NE 4.8 km/h 12.9 km/h 83 % 0.0 mm
04:42 4.8 °C 2.2 °C 1015.5 hPa ENE 3.2 km/h 11.3 km/h 83 % 0.0 mm
04:47 4.8 °C 2.2 °C 1015.5 hPa NNE 6.4 km/h 11.3 km/h 83 % 0.0 mm
04:52 4.7 °C 2.1 °C 1015.1 hPa NE 11.3 km/h 11.3 km/h 83 % 0.0 mm
05:02 4.3 °C 1.8 °C 1015.1 hPa NE 4.8 km/h 11.3 km/h 84 % 0.0 mm
05:12 4.0 °C 1.7 °C 1015.5 hPa NE 8.0 km/h 11.3 km/h 85 % 0.0 mm
05:17 3.9 °C 1.6 °C 1015.1 hPa NNE 4.8 km/h 9.7 km/h 85 % 0.0 mm
05:22 3.9 °C 1.6 °C 1015.1 hPa NNW 1.6 km/h 9.7 km/h 85 % 0.0 mm
05:32 3.4 °C 1.3 °C 1015.1 hPa Calm   8.0 km/h 86 % 0.0 mm
05:37 3.3 °C 1.3 °C 1015.1 hPa Calm   6.4 km/h 87 % 0.0 mm
05:42 3.1 °C 1.1 °C 1015.1 hPa NNE 1.6 km/h 4.8 km/h 87 % 0.0 mm
05:47 3.0 °C 1.2 °C 1015.1 hPa NNE 1.6 km/h 4.8 km/h 88 % 0.0 mm
05:52 3.0 °C 1.2 °C 1015.1 hPa Calm   4.8 km/h 88 % 0.0 mm
05:57 3.0 °C 1.4 °C 1015.1 hPa Calm   4.8 km/h 89 % 0.0 mm
06:02 3.1 °C 1.5 °C 1015.1 hPa Calm   4.8 km/h 89 % 0.0 mm
06:12 2.9 °C 1.3 °C 1015.1 hPa Calm   3.2 km/h 89 % 0.0 mm
06:17 2.8 °C 1.2 °C 1015.1 hPa Calm   1.6 km/h 89 % 0.0 mm
06:22 2.8 °C 1.2 °C 1015.1 hPa NNE 1.6 km/h 3.2 km/h 89 % 0.0 mm
06:27 2.8 °C 1.2 °C 1015.1 hPa Calm   3.2 km/h 89 % 0.0 mm
06:32 2.8 °C 1.2 °C 1015.1 hPa North 1.6 km/h 3.2 km/h 89 % 0.0 mm
06:37 2.8 °C 1.2 °C 1014.8 hPa Calm   3.2 km/h 89 % 0.0 mm
06:42 2.8 °C 1.2 °C 1014.8 hPa NE 4.8 km/h 4.8 km/h 89 % 0.0 mm
06:47 2.7 °C 0.9 °C 1014.8 hPa NNE 1.6 km/h 3.2 km/h 88 % 0.0 mm
06:52 2.6 °C 1.0 °C 1014.8 hPa North 3.2 km/h 6.4 km/h 89 % 0.0 mm
06:57 2.8 °C 1.2 °C 1014.8 hPa NNE 6.4 km/h 6.4 km/h 89 % 0.0 mm
07:02 3.2 °C 1.4 °C 1014.8 hPa NE 4.8 km/h 6.4 km/h 88 % 0.0 mm
07:12 3.8 °C 1.8 °C 1014.8 hPa NNE 1.6 km/h 9.7 km/h 87 % 0.0 mm
07:17 3.9 °C 1.8 °C 1014.8 hPa North 1.6 km/h 12.9 km/h 86 % 0.0 mm
07:22 3.8 °C 1.7 °C 1014.8 hPa NNE 3.2 km/h 12.9 km/h 86 % 0.0 mm
07:27 3.9 °C 1.8 °C 1014.8 hPa ENE 3.2 km/h 12.9 km/h 86 % 0.0 mm
07:32 3.9 °C 1.8 °C 1014.4 hPa NE 9.7 km/h 11.3 km/h 86 % 0.0 mm
07:37 4.1 °C 2.0 °C 1014.4 hPa NE 9.7 km/h 16.1 km/h 86 % 0.0 mm
07:42 4.1 °C 2.0 °C 1014.4 hPa NNE 8.0 km/h 16.1 km/h 86 % 0.0 mm
07:47 4.1 °C 1.8 °C 1014.4 hPa NE 11.3 km/h 19.3 km/h 85 % 0.0 mm
07:52 4.2 °C 1.9 °C 1014.8 hPa NNE 8.0 km/h 19.3 km/h 85 % 0.0 mm
07:57 4.2 °C 1.9 °C 1014.8 hPa NE 11.3 km/h 19.3 km/h 85 % 0.0 mm
08:02 4.1 °C 1.8 °C 1014.8 hPa NNE 11.3 km/h 20.9 km/h 85 % 0.0 mm
08:12 4.0 °C 1.7 °C 1014.4 hPa North 8.0 km/h 20.9 km/h 85 % 0.0 mm
08:17 4.1 °C 1.8 °C 1014.8 hPa NE 6.4 km/h 14.5 km/h 85 % 0.0 mm
08:22 4.1 °C 1.8 °C 1014.8 hPa NE 12.9 km/h 14.5 km/h 85 % 0.0 mm
08:32 4.2 °C 1.9 °C 1014.8 hPa NE 4.8 km/h 20.9 km/h 85 % 0.0 mm
08:37 4.2 °C 1.9 °C 1014.8 hPa ENE 11.3 km/h 20.9 km/h 85 % 0.0 mm
08:42 4.2 °C 1.9 °C 1014.8 hPa NE 9.7 km/h 20.9 km/h 85 % 0.0 mm
08:47 4.2 °C 1.9 °C 1014.8 hPa NNE 11.3 km/h 19.3 km/h 85 % 0.0 mm
08:52 4.2 °C 1.9 °C 1014.8 hPa NE 16.1 km/h 17.7 km/h 85 % 0.0 mm
08:57 4.4 °C 2.1 °C 1014.8 hPa NNW 4.8 km/h 17.7 km/h 85 % 0.0 mm
09:02 4.6 °C 2.1 °C 1014.8 hPa NE 8.0 km/h 17.7 km/h 84 % 0.0 mm
09:07 4.8 °C 2.3 °C 1014.8 hPa NE 4.8 km/h 17.7 km/h 84 % 0.0 mm
09:12 4.9 °C 2.4 °C 1014.8 hPa NE 6.4 km/h 17.7 km/h 84 % 0.0 mm
09:17 5.1 °C 2.5 °C 1014.8 hPa NE 11.3 km/h 14.5 km/h 83 % 0.0 mm
09:22 5.3 °C 2.5 °C 1014.8 hPa NNE 9.7 km/h 14.5 km/h 82 % 0.0 mm
09:32 5.5 °C 2.5 °C 1014.8 hPa NE 6.4 km/h 17.7 km/h 81 % 0.0 mm
09:37 5.7 °C 2.7 °C 1014.8 hPa ENE 11.3 km/h 17.7 km/h 81 % 0.0 mm
09:42 5.8 °C 2.6 °C 1014.8 hPa NNE 4.8 km/h 17.7 km/h 80 % 0.0 mm
09:52 6.1 °C 2.7 °C 1014.8 hPa NE 12.9 km/h 17.7 km/h 79 % 0.0 mm
09:57 6.2 °C 2.8 °C 1014.8 hPa ENE 11.3 km/h 22.5 km/h 79 % 0.0 mm
10:02 6.3 °C 2.9 °C 1015.1 hPa NNE 19.3 km/h 22.5 km/h 79 % 0.0 mm
10:12 6.1 °C 2.9 °C 1014.8 hPa NE 8.0 km/h 25.7 km/h 80 % 0.0 mm
10:17 6.2 °C 3.0 °C 1014.8 hPa NE 19.3 km/h 25.7 km/h 80 % 0.0 mm
10:22 6.4 °C 3.2 °C 1014.8 hPa NNE 16.1 km/h 25.7 km/h 80 % 0.0 mm
10:27 6.6 °C 3.4 °C 1014.8 hPa NNE 19.3 km/h 25.7 km/h 80 % 0.0 mm
10:32 6.8 °C 3.4 °C 1014.8 hPa NE 16.1 km/h 22.5 km/h 79 % 0.0 mm
10:37 7.0 °C 3.4 °C 1014.4 hPa NE 9.7 km/h 24.1 km/h 78 % 0.0 mm
10:42 7.3 °C 3.5 °C 1014.4 hPa NE 11.3 km/h 24.1 km/h 77 % 0.0 mm
10:47 7.5 °C 3.7 °C 1014.4 hPa NE 19.3 km/h 24.1 km/h 77 % 0.0 mm
10:52 7.8 °C 3.8 °C 1014.4 hPa NE 17.7 km/h 24.1 km/h 76 % 0.0 mm
10:57 7.9 °C 3.7 °C 1014.4 hPa NNE 14.5 km/h 24.1 km/h 75 % 0.0 mm
11:02 8.1 °C 3.9 °C 1014.4 hPa NE 12.9 km/h 25.7 km/h 75 % 0.0 mm
11:12 8.5 °C 4.1 °C 1014.4 hPa NE 12.9 km/h 25.7 km/h 74 % 0.0 mm
11:17 8.7 °C 4.1 °C 1014.4 hPa NE 8.0 km/h 24.1 km/h 73 % 0.0 mm
11:22 8.9 °C 4.1 °C 1014.4 hPa NE 8.0 km/h 25.7 km/h 72 % 0.0 mm
11:32 9.4 °C 4.2 °C 1014.4 hPa NE 11.3 km/h 25.7 km/h 70 % 0.0 mm
11:37 9.8 °C 4.4 °C 1014.4 hPa East 14.5 km/h 22.5 km/h 69 % 0.0 mm
11:42 10.1 °C 4.5 °C 1014.4 hPa NE 9.7 km/h 22.5 km/h 68 % 0.0 mm
11:52 10.8 °C 4.5 °C 1014.4 hPa ENE 8.0 km/h 19.3 km/h 65 % 0.0 mm
11:57 10.8 °C 3.8 °C 1014.4 hPa NE 11.3 km/h 19.3 km/h 62 % 0.0 mm
12:02 10.8 °C 3.3 °C 1014.1 hPa ENE 20.9 km/h 30.6 km/h 60 % 0.0 mm
12:12 10.8 °C 3.6 °C 1014.1 hPa NNE 11.3 km/h 29.0 km/h 61 % 0.0 mm
12:17 11.0 °C 3.5 °C 1014.1 hPa ENE 11.3 km/h 29.0 km/h 60 % 0.0 mm
12:22 11.2 °C 3.5 °C 1014.1 hPa East 20.9 km/h 29.0 km/h 59 % 0.0 mm
12:32 11.6 °C 3.4 °C 1013.8 hPa ENE 12.9 km/h 22.5 km/h 57 % 0.0 mm
12:37 11.8 °C 3.6 °C 1013.8 hPa East 14.5 km/h 27.4 km/h 57 % 0.0 mm
12:42 11.9 °C 3.9 °C 1013.8 hPa NE 16.1 km/h 27.4 km/h 58 % 0.0 mm
12:52 11.8 °C 3.0 °C 1013.8 hPa NE 14.5 km/h 27.4 km/h 55 % 0.0 mm
13:02 11.9 °C 2.6 °C 1013.8 hPa ENE 8.0 km/h 30.6 km/h 53 % 0.0 mm
13:07 12.0 °C 2.7 °C 1013.8 hPa NNE 12.9 km/h 30.6 km/h 53 % 0.0 mm
13:12 12.1 °C 2.8 °C 1013.8 hPa ENE 17.7 km/h 30.6 km/h 53 % 0.0 mm
13:17 12.2 °C 2.9 °C 1013.8 hPa NNE 12.9 km/h 20.9 km/h 53 % 0.0 mm
13:22 12.2 °C 2.9 °C 1013.8 hPa NE 6.4 km/h 27.4 km/h 53 % 0.0 mm
13:27 12.3 °C 2.7 °C 1013.8 hPa ENE 11.3 km/h 27.4 km/h 52 % 0.0 mm
13:32 12.5 °C 3.2 °C 1013.8 hPa ENE 17.7 km/h 27.4 km/h 53 % 0.0 mm
13:37 12.7 °C 3.1 °C 1013.8 hPa East 14.5 km/h 22.5 km/h 52 % 0.0 mm
13:42 12.9 °C 3.3 °C 1013.8 hPa NE 12.9 km/h 22.5 km/h 52 % 0.0 mm
13:47 12.8 °C 3.2 °C 1013.4 hPa ENE 14.5 km/h 24.1 km/h 52 % 0.0 mm
13:52 12.7 °C 3.4 °C 1013.4 hPa ENE 16.1 km/h 27.4 km/h 53 % 0.0 mm
13:57 12.7 °C 3.4 °C 1013.4 hPa ENE 9.7 km/h 27.4 km/h 53 % 0.0 mm
14:02 13.1 °C 3.7 °C 1013.1 hPa ENE 17.7 km/h 27.4 km/h 53 % 0.0 mm
14:07 13.0 °C 3.4 °C 1013.1 hPa North 9.7 km/h 22.5 km/h 52 % 0.0 mm
14:12 12.9 °C 3.3 °C 1013.1 hPa ENE 16.1 km/h 22.5 km/h 52 % 0.0 mm
14:17 12.9 °C 3.3 °C 1012.8 hPa NE 17.7 km/h 29.0 km/h 52 % 0.0 mm
14:22 12.8 °C 3.5 °C 1012.8 hPa ENE 14.5 km/h 29.0 km/h 53 % 0.0 mm
14:27 13.1 °C 3.5 °C 1012.8 hPa ENE 14.5 km/h 29.0 km/h 52 % 0.0 mm
14:32 13.2 °C 3.6 °C 1012.8 hPa ENE 12.9 km/h 25.7 km/h 52 % 0.0 mm
14:37 13.1 °C 3.2 °C 1012.8 hPa NNE 17.7 km/h 30.6 km/h 51 % 0.0 mm
14:42 12.9 °C 3.0 °C 1012.4 hPa ENE 14.5 km/h 30.6 km/h 51 % 0.0 mm
14:47 13.0 °C 3.1 °C 1012.4 hPa NNE 16.1 km/h 30.6 km/h 51 % 0.0 mm
14:52 12.9 °C 3.0 °C 1012.4 hPa NE 12.9 km/h 25.7 km/h 51 % 0.0 mm
14:57 12.8 °C 2.9 °C 1012.4 hPa NNE 20.9 km/h 25.7 km/h 51 % 0.0 mm
15:02 12.9 °C 2.7 °C 1012.1 hPa NNE 16.1 km/h 27.4 km/h 50 % 0.0 mm
15:12 12.9 °C 3.0 °C 1012.1 hPa NNE 9.7 km/h 25.7 km/h 51 % 0.0 mm
15:17 13.0 °C 2.8 °C 1012.1 hPa ENE 11.3 km/h 22.5 km/h 50 % 0.0 mm
15:22 13.3 °C 3.1 °C 1012.1 hPa NE 17.7 km/h 25.7 km/h 50 % 0.0 mm
15:32 13.7 °C 3.2 °C 1012.1 hPa NE 11.3 km/h 25.7 km/h 49 % 0.0 mm
15:37 13.5 °C 3.0 °C 1011.7 hPa NNE 11.3 km/h 27.4 km/h 49 % 0.0 mm
15:42 13.6 °C 3.4 °C 1011.7 hPa East 12.9 km/h 27.4 km/h 50 % 0.0 mm
15:47 13.7 °C 3.5 °C 1012.1 hPa ENE 17.7 km/h 27.4 km/h 50 % 0.0 mm
15:52 13.6 °C 3.1 °C 1011.7 hPa ENE 14.5 km/h 25.7 km/h 49 % 0.0 mm
15:57 13.6 °C 3.7 °C 1011.7 hPa ENE 24.1 km/h 24.1 km/h 51 % 0.0 mm
16:02 13.6 °C 3.7 °C 1011.7 hPa ENE 14.5 km/h 27.4 km/h 51 % 0.0 mm
16:12 13.5 °C 3.8 °C 1011.7 hPa NE 17.7 km/h 27.4 km/h 52 % 0.0 mm
16:17 13.4 °C 3.7 °C 1011.7 hPa NE 16.1 km/h 25.7 km/h 52 % 0.0 mm
16:22 13.4 °C 3.7 °C 1011.7 hPa North 19.3 km/h 25.7 km/h 52 % 0.0 mm
16:27 13.3 °C 3.6 °C 1011.4 hPa NE 12.9 km/h 25.7 km/h 52 % 0.0 mm
16:32 13.3 °C 3.6 °C 1011.4 hPa ENE 14.5 km/h 27.4 km/h 52 % 0.0 mm
16:37 13.4 °C 3.7 °C 1011.4 hPa NE 11.3 km/h 27.4 km/h 52 % 0.0 mm
16:42 13.4 °C 3.7 °C 1011.4 hPa ENE 6.4 km/h 27.4 km/h 52 % 0.0 mm
16:47 13.4 °C 3.7 °C 1011.4 hPa ENE 19.3 km/h 25.7 km/h 52 % 0.0 mm
16:52 13.3 °C 3.6 °C 1011.1 hPa NE 14.5 km/h 25.7 km/h 52 % 0.0 mm
16:57 13.2 °C 3.6 °C 1011.4 hPa NNE 12.9 km/h 25.7 km/h 52 % 0.0 mm
17:02 13.2 °C 3.6 °C 1011.1 hPa NE 6.4 km/h 22.5 km/h 52 % 0.0 mm
17:07 13.3 °C 3.6 °C 1011.1 hPa NE 9.7 km/h 22.5 km/h 52 % 0.0 mm
17:12 13.4 °C 3.7 °C 1011.1 hPa NE 11.3 km/h 22.5 km/h 52 % 0.0 mm
17:17 13.4 °C 3.5 °C 1011.1 hPa NE 12.9 km/h 24.1 km/h 51 % 0.0 mm
17:22 13.6 °C 3.7 °C 1011.1 hPa NE 8.0 km/h 25.7 km/h 51 % 0.0 mm
17:27 13.6 °C 3.7 °C 1011.1 hPa ENE 8.0 km/h 25.7 km/h 51 % 0.0 mm
17:32 13.6 °C 3.4 °C 1011.1 hPa East 17.7 km/h 20.9 km/h 50 % 0.0 mm
17:42 13.3 °C 3.1 °C 1011.1 hPa NE 12.9 km/h 22.5 km/h 50 % 0.0 mm
17:52 13.2 °C 3.0 °C 1011.1 hPa ENE 12.9 km/h 25.7 km/h 50 % 0.0 mm
17:57 13.1 °C 3.2 °C 1011.1 hPa NNE 12.9 km/h 25.7 km/h 51 % 0.0 mm
18:02 12.9 °C 3.3 °C 1011.1 hPa ENE 6.4 km/h 22.5 km/h 52 % 0.0 mm
18:12 12.7 °C 3.4 °C 1011.1 hPa NE 4.8 km/h 20.9 km/h 53 % 0.0 mm
18:17 12.5 °C 3.2 °C 1011.1 hPa NE 6.4 km/h 20.9 km/h 53 % 0.0 mm
18:22 12.3 °C 3.0 °C 1011.1 hPa ENE 8.0 km/h 22.5 km/h 53 % 0.0 mm
18:32 12.1 °C 3.1 °C 1011.1 hPa NNE 8.0 km/h 16.1 km/h 54 % 0.0 mm
18:37 11.9 °C 2.9 °C 1011.1 hPa NE 9.7 km/h 16.1 km/h 54 % 0.0 mm
18:42 11.8 °C 2.8 °C 1011.1 hPa NNE 11.3 km/h 16.1 km/h 54 % 0.0 mm
18:52 11.7 °C 2.7 °C 1011.1 hPa ENE 8.0 km/h 19.3 km/h 54 % 0.0 mm
18:57 11.6 °C 2.6 °C 1011.1 hPa ENE 8.0 km/h 17.7 km/h 54 % 0.0 mm
19:07 11.3 °C 2.6 °C 1011.1 hPa NNE 9.7 km/h 17.7 km/h 55 % 0.0 mm
19:12 11.3 °C 2.6 °C 1011.1 hPa ENE 4.8 km/h 14.5 km/h 55 % 0.0 mm
19:22 10.9 °C 2.5 °C 1011.1 hPa ENE 4.8 km/h 14.5 km/h 56 % 0.0 mm
19:32 10.6 °C 2.7 °C 1011.1 hPa NE 6.4 km/h 14.5 km/h 58 % 0.0 mm
19:37 10.5 °C 2.6 °C 1011.1 hPa ENE 4.8 km/h 11.3 km/h 58 % 0.0 mm
19:47 10.4 °C 2.5 °C 1011.1 hPa ENE 8.0 km/h 12.9 km/h 58 % 0.0 mm
19:52 10.3 °C 2.4 °C 1011.1 hPa NE 4.8 km/h 12.9 km/h 58 % 0.0 mm
19:57 10.2 °C 2.5 °C 1011.1 hPa ENE 4.8 km/h 12.9 km/h 59 % 0.0 mm
20:07 9.9 °C 2.3 °C 1011.1 hPa NE 3.2 km/h 11.3 km/h 59 % 0.0 mm
20:12 9.8 °C 2.2 °C 1011.1 hPa NE 4.8 km/h 11.3 km/h 59 % 0.0 mm
20:22 9.5 °C 2.1 °C 1011.1 hPa NE 6.4 km/h 8.0 km/h 60 % 0.0 mm
20:32 9.3 °C 2.2 °C 1011.1 hPa ENE 4.8 km/h 9.7 km/h 61 % 0.0 mm
20:37 9.2 °C 2.1 °C 1011.1 hPa NE 6.4 km/h 9.7 km/h 61 % 0.0 mm
20:42 9.1 °C 2.0 °C 1011.1 hPa NE 6.4 km/h 9.7 km/h 61 % 0.0 mm
20:47 9.0 °C 2.1 °C 1011.1 hPa ENE 3.2 km/h 9.7 km/h 62 % 0.0 mm
20:57 8.7 °C 2.0 °C 1011.1 hPa NE 3.2 km/h 9.7 km/h 63 % 0.0 mm
21:02 8.6 °C 2.0 °C 1011.1 hPa ENE 3.2 km/h 8.0 km/h 63 % 0.0 mm
21:07 8.5 °C 2.1 °C 1011.1 hPa NE 4.8 km/h 8.0 km/h 64 % 0.0 mm
21:12 8.4 °C 2.0 °C 1011.1 hPa NNE 8.0 km/h 8.0 km/h 64 % 0.0 mm
21:17 8.3 °C 1.9 °C 1011.1 hPa ENE 4.8 km/h 11.3 km/h 64 % 0.0 mm
21:22 8.3 °C 2.1 °C 1011.1 hPa NE 4.8 km/h 11.3 km/h 65 % 0.0 mm
21:32 8.2 °C 2.0 °C 1011.1 hPa NE 9.7 km/h 11.3 km/h 65 % 0.0 mm
21:37 8.2 °C 2.0 °C 1010.7 hPa NE 9.7 km/h 11.3 km/h 65 % 0.0 mm
21:42 8.2 °C 2.0 °C 1010.7 hPa NE 6.4 km/h 12.9 km/h 65 % 0.0 mm
21:47 8.2 °C 2.0 °C 1010.7 hPa NE 4.8 km/h 12.9 km/h 65 % 0.0 mm
21:52 8.2 °C 2.0 °C 1010.7 hPa NNE 8.0 km/h 12.9 km/h 65 % 0.0 mm
21:57 8.1 °C 2.1 °C 1010.7 hPa NE 8.0 km/h 12.9 km/h 66 % 0.0 mm
22:02 8.0 °C 2.2 °C 1010.4 hPa NE 8.0 km/h 14.5 km/h 67 % 0.0 mm
22:12 8.0 °C 2.2 °C 1010.4 hPa NE 8.0 km/h 14.5 km/h 67 % 0.0 mm
22:17 8.0 °C 2.2 °C 1010.4 hPa NE 11.3 km/h 14.5 km/h 67 % 0.0 mm
22:27 8.1 °C 2.3 °C 1010.4 hPa NNE 8.0 km/h 16.1 km/h 67 % 0.0 mm
22:32 8.1 °C 2.3 °C 1010.4 hPa NE 9.7 km/h 16.1 km/h 67 % 0.0 mm
22:37 8.1 °C 2.3 °C 1010.4 hPa NE 9.7 km/h 16.1 km/h 67 % 0.0 mm
22:42 8.1 °C 2.3 °C 1010.4 hPa NE 11.3 km/h 16.1 km/h 67 % 0.0 mm
22:47 8.0 °C 2.2 °C 1010.4 hPa NE 9.7 km/h 14.5 km/h 67 % 0.0 mm
22:52 7.9 °C 2.2 °C 1010.4 hPa ENE 11.3 km/h 14.5 km/h 67 % 0.0 mm
22:57 7.9 °C 2.4 °C 1010.4 hPa NNE 9.7 km/h 14.5 km/h 68 % 0.0 mm
23:02 7.8 °C 2.3 °C 1010.0 hPa NE 3.2 km/h 14.5 km/h 68 % 0.0 mm
23:07 7.7 °C 2.2 °C 1010.0 hPa NE 11.3 km/h 14.5 km/h 68 % 0.0 mm
23:12 7.7 °C 2.2 °C 1010.0 hPa NE 11.3 km/h 14.5 km/h 68 % 0.0 mm
23:17 7.8 °C 2.3 °C 1010.0 hPa NE 8.0 km/h 16.1 km/h 68 % 0.0 mm
23:22 7.8 °C 2.3 °C 1010.0 hPa NE 4.8 km/h 16.1 km/h 68 % 0.0 mm
23:27 7.8 °C 2.3 °C 1010.0 hPa NNE 11.3 km/h 16.1 km/h 68 % 0.0 mm
23:32 7.8 °C 2.3 °C 1010.0 hPa NE 9.7 km/h 16.1 km/h 68 % 0.0 mm
23:37 7.8 °C 2.3 °C 1010.0 hPa NE 9.7 km/h 16.1 km/h 68 % 0.0 mm
23:42 7.7 °C 2.2 °C 1010.0 hPa NE 9.7 km/h 14.5 km/h 68 % 0.0 mm
23:47 7.7 °C 2.2 °C 1010.0 hPa NNE 9.7 km/h 14.5 km/h 68 % 0.0 mm
23:52 7.6 °C 2.1 °C 1010.0 hPa NE 9.7 km/h 14.5 km/h 68 % 0.0 mm
23:57 7.6 °C 2.1 °C 1010.0 hPa NE 8.0 km/h 14.5 km/h 68 % 0.0 mm
Meteo18
Compliments of Weather Underground - 4 mb

Script developed by  Jim McMurry - jmcmurry@mwt.net Adapted for the template by  Wim van der Kuil - Leuven-Template.eu

You find our weather info also at:

European Weather Network

Weather Underground

Equipment we use:

Weather-station
Davis Vue

Weather-program
Meteohub

Weather-server
Raspberry PI 2 B+

Provider
1 and 1

Davis Vue

Meteohub

Raspberry PI 2 B+

1 and 1